sensor_id;sensor_type;location;lat;lon;timestamp;temperature;humidity
31084;DHT22;36333;51.382;0.016;2022-07-22T00:00:07;19.20;87.40
31084;DHT22;36333;51.382;0.016;2022-07-22T00:02:36;19.20;87.60
31084;DHT22;36333;51.382;0.016;2022-07-22T00:05:03;19.20;87.90
31084;DHT22;36333;51.382;0.016;2022-07-22T00:07:31;19.10;88.10
31084;DHT22;36333;51.382;0.016;2022-07-22T00:09:59;19.10;88.30
31084;DHT22;36333;51.382;0.016;2022-07-22T00:12:26;19.10;88.50
31084;DHT22;36333;51.382;0.016;2022-07-22T00:14:54;19.10;88.80
31084;DHT22;36333;51.382;0.016;2022-07-22T00:17:21;19.00;89.10
31084;DHT22;36333;51.382;0.016;2022-07-22T00:19:48;19.00;89.50
31084;DHT22;36333;51.382;0.016;2022-07-22T00:22:16;19.00;89.90
31084;DHT22;36333;51.382;0.016;2022-07-22T00:24:46;18.50;90.00
31084;DHT22;36333;51.382;0.016;2022-07-22T00:27:13;19.00;90.10
31084;DHT22;36333;51.382;0.016;2022-07-22T00:29:41;19.00;90.10
31084;DHT22;36333;51.382;0.016;2022-07-22T00:32:09;18.90;90.20
31084;DHT22;36333;51.382;0.016;2022-07-22T00:34:36;18.90;90.30
31084;DHT22;36333;51.382;0.016;2022-07-22T00:37:04;18.90;90.40
31084;DHT22;36333;51.382;0.016;2022-07-22T00:39:33;18.80;90.40
31084;DHT22;36333;51.382;0.016;2022-07-22T00:42:01;18.80;90.50
31084;DHT22;36333;51.382;0.016;2022-07-22T00:44:31;18.80;90.50
31084;DHT22;36333;51.382;0.016;2022-07-22T00:47:04;18.80;90.40
31084;DHT22;36333;51.382;0.016;2022-07-22T00:49:32;18.80;90.40
31084;DHT22;36333;51.382;0.016;2022-07-22T00:52:00;18.80;90.40
31084;DHT22;36333;51.382;0.016;2022-07-22T00:54:27;18.70;90.40
31084;DHT22;36333;51.382;0.016;2022-07-22T00:56:56;18.70;90.50
31084;DHT22;36333;51.382;0.016;2022-07-22T00:59:23;18.70;90.50
31084;DHT22;36333;51.382;0.016;2022-07-22T01:01:50;18.70;90.50
31084;DHT22;36333;51.382;0.016;2022-07-22T01:04:18;18.70;90.40
31084;DHT22;36333;51.382;0.016;2022-07-22T01:06:46;18.70;90.60
31084;DHT22;36333;51.382;0.016;2022-07-22T01:09:13;18.70;90.40
31084;DHT22;36333;51.382;0.016;2022-07-22T01:11:41;18.70;90.30
31084;DHT22;36333;51.382;0.016;2022-07-22T01:14:08;18.70;90.20
31084;DHT22;36333;51.382;0.016;2022-07-22T01:16:36;18.70;90.20
31084;DHT22;36333;51.382;0.016;2022-07-22T01:19:05;18.60;90.20
31084;DHT22;36333;51.382;0.016;2022-07-22T01:21:32;18.60;90.10
31084;DHT22;36333;51.382;0.016;2022-07-22T01:24:00;18.60;90.10
31084;DHT22;36333;51.382;0.016;2022-07-22T01:26:27;18.60;90.10
31084;DHT22;36333;51.382;0.016;2022-07-22T01:28:55;18.60;90.10
31084;DHT22;36333;51.382;0.016;2022-07-22T01:31:23;18.60;90.00
31084;DHT22;36333;51.382;0.016;2022-07-22T01:33:50;18.60;90.00
31084;DHT22;36333;51.382;0.016;2022-07-22T01:36:18;18.60;90.00
31084;DHT22;36333;51.382;0.016;2022-07-22T01:38:46;18.60;90.00
31084;DHT22;36333;51.382;0.016;2022-07-22T01:41:13;18.60;90.00
31084;DHT22;36333;51.382;0.016;2022-07-22T01:43:41;18.60;90.10
31084;DHT22;36333;51.382;0.016;2022-07-22T01:46:08;18.60;90.20
31084;DHT22;36333;51.382;0.016;2022-07-22T01:48:40;18.60;90.20
31084;DHT22;36333;51.382;0.016;2022-07-22T01:51:07;18.50;90.20
31084;DHT22;36333;51.382;0.016;2022-07-22T01:53:36;18.60;90.20
31084;DHT22;36333;51.382;0.016;2022-07-22T01:56:04;18.50;90.10
31084;DHT22;36333;51.382;0.016;2022-07-22T01:58:37;18.60;90.20
31084;DHT22;36333;51.382;0.016;2022-07-22T02:01:08;18.60;90.30
31084;DHT22;36333;51.382;0.016;2022-07-22T02:03:36;18.60;90.20
31084;DHT22;36333;51.382;0.016;2022-07-22T02:06:06;18.50;90.20
31084;DHT22;36333;51.382;0.016;2022-07-22T02:08:33;18.50;90.20
31084;DHT22;36333;51.382;0.016;2022-07-22T02:11:10;18.50;90.20
31084;DHT22;36333;51.382;0.016;2022-07-22T02:13:52;18.50;90.20
31084;DHT22;36333;51.382;0.016;2022-07-22T02:16:20;18.50;90.20
31084;DHT22;36333;51.382;0.016;2022-07-22T02:18:49;18.50;90.20
31084;DHT22;36333;51.382;0.016;2022-07-22T02:21:18;18.40;90.20
31084;DHT22;36333;51.382;0.016;2022-07-22T02:23:45;18.30;90.20
31084;DHT22;36333;51.382;0.016;2022-07-22T02:26:13;18.50;90.20
31084;DHT22;36333;51.382;0.016;2022-07-22T02:28:40;18.40;90.20
31084;DHT22;36333;51.382;0.016;2022-07-22T02:31:09;18.30;90.20
31084;DHT22;36333;51.382;0.016;2022-07-22T02:33:38;18.30;90.30
31084;DHT22;36333;51.382;0.016;2022-07-22T02:36:06;18.30;90.30
31084;DHT22;36333;51.382;0.016;2022-07-22T02:38:35;18.30;90.40
31084;DHT22;36333;51.382;0.016;2022-07-22T02:41:02;18.30;90.40
31084;DHT22;36333;51.382;0.016;2022-07-22T02:43:31;18.20;90.40
31084;DHT22;36333;51.382;0.016;2022-07-22T02:45:59;18.20;90.50
31084;DHT22;36333;51.382;0.016;2022-07-22T02:48:26;18.10;90.50
31084;DHT22;36333;51.382;0.016;2022-07-22T02:50:54;18.10;90.60
31084;DHT22;36333;51.382;0.016;2022-07-22T02:53:24;18.10;90.60
31084;DHT22;36333;51.382;0.016;2022-07-22T02:55:52;18.00;90.70
31084;DHT22;36333;51.382;0.016;2022-07-22T02:58:19;18.00;90.70
31084;DHT22;36333;51.382;0.016;2022-07-22T03:00:47;17.90;90.70
31084;DHT22;36333;51.382;0.016;2022-07-22T03:03:14;18.10;90.80
31084;DHT22;36333;51.382;0.016;2022-07-22T03:05:42;18.00;90.80
31084;DHT22;36333;51.382;0.016;2022-07-22T03:08:36;18.00;90.80
31084;DHT22;36333;51.382;0.016;2022-07-22T03:11:03;18.00;90.80
31084;DHT22;36333;51.382;0.016;2022-07-22T03:13:31;18.00;90.80
31084;DHT22;36333;51.382;0.016;2022-07-22T03:15:58;18.00;90.80
31084;DHT22;36333;51.382;0.016;2022-07-22T03:18:26;18.10;90.80
31084;DHT22;36333;51.382;0.016;2022-07-22T03:20:54;18.20;90.80
31084;DHT22;36333;51.382;0.016;2022-07-22T03:23:21;18.00;90.80
31084;DHT22;36333;51.382;0.016;2022-07-22T03:25:48;18.00;90.80
31084;DHT22;36333;51.382;0.016;2022-07-22T03:28:16;18.00;90.90
31084;DHT22;36333;51.382;0.016;2022-07-22T03:30:43;17.90;90.90
31084;DHT22;36333;51.382;0.016;2022-07-22T03:33:12;17.80;91.10
31084;DHT22;36333;51.382;0.016;2022-07-22T03:35:40;18.00;91.10
31084;DHT22;36333;51.382;0.016;2022-07-22T03:38:08;17.90;91.10
31084;DHT22;36333;51.382;0.016;2022-07-22T03:40:37;17.90;91.20
31084;DHT22;36333;51.382;0.016;2022-07-22T03:43:05;17.90;91.10
31084;DHT22;36333;51.382;0.016;2022-07-22T03:45:32;17.90;91.00
31084;DHT22;36333;51.382;0.016;2022-07-22T03:48:00;17.90;91.10
31084;DHT22;36333;51.382;0.016;2022-07-22T03:50:34;17.90;91.00
31084;DHT22;36333;51.382;0.016;2022-07-22T03:53:01;18.00;91.00
31084;DHT22;36333;51.382;0.016;2022-07-22T03:55:31;18.00;90.90
31084;DHT22;36333;51.382;0.016;2022-07-22T03:57:59;17.90;90.90
31084;DHT22;36333;51.382;0.016;2022-07-22T04:00:29;18.00;90.80
31084;DHT22;36333;51.382;0.016;2022-07-22T04:02:59;18.00;90.80
31084;DHT22;36333;51.382;0.016;2022-07-22T04:06:01;18.00;90.80
31084;DHT22;36333;51.382;0.016;2022-07-22T04:08:52;17.90;90.70
31084;DHT22;36333;51.382;0.016;2022-07-22T04:11:20;18.00;90.70
31084;DHT22;36333;51.382;0.016;2022-07-22T04:13:47;18.00;90.70
31084;DHT22;36333;51.382;0.016;2022-07-22T04:16:15;17.90;90.70
31084;DHT22;36333;51.382;0.016;2022-07-22T04:18:51;17.90;90.70
31084;DHT22;36333;51.382;0.016;2022-07-22T04:21:34;17.90;90.70
31084;DHT22;36333;51.382;0.016;2022-07-22T04:24:07;17.80;90.80
31084;DHT22;36333;51.382;0.016;2022-07-22T04:26:34;17.80;90.90
31084;DHT22;36333;51.382;0.016;2022-07-22T04:29:04;17.70;90.90
31084;DHT22;36333;51.382;0.016;2022-07-22T04:31:33;17.70;91.00
31084;DHT22;36333;51.382;0.016;2022-07-22T04:34:09;17.70;91.00
31084;DHT22;36333;51.382;0.016;2022-07-22T04:36:37;17.70;91.00
31084;DHT22;36333;51.382;0.016;2022-07-22T04:39:05;17.60;91.00
31084;DHT22;36333;51.382;0.016;2022-07-22T04:41:34;17.60;91.20
31084;DHT22;36333;51.382;0.016;2022-07-22T04:44:01;17.70;91.10
31084;DHT22;36333;51.382;0.016;2022-07-22T04:46:31;17.70;91.20
31084;DHT22;36333;51.382;0.016;2022-07-22T04:49:00;17.60;91.10
31084;DHT22;36333;51.382;0.016;2022-07-22T04:51:27;17.60;91.10
31084;DHT22;36333;51.382;0.016;2022-07-22T04:54:01;17.60;91.30
31084;DHT22;36333;51.382;0.016;2022-07-22T04:56:34;17.60;91.10
31084;DHT22;36333;51.382;0.016;2022-07-22T04:59:02;17.60;91.20
31084;DHT22;36333;51.382;0.016;2022-07-22T05:01:31;17.60;91.10
31084;DHT22;36333;51.382;0.016;2022-07-22T05:04:01;17.30;91.00
31084;DHT22;36333;51.382;0.016;2022-07-22T05:06:28;17.70;91.10
31084;DHT22;36333;51.382;0.016;2022-07-22T05:08:57;17.70;91.10
31084;DHT22;36333;51.382;0.016;2022-07-22T05:11:28;17.70;91.00
31084;DHT22;36333;51.382;0.016;2022-07-22T05:13:56;17.80;90.90
31084;DHT22;36333;51.382;0.016;2022-07-22T05:16:24;17.70;90.90
31084;DHT22;36333;51.382;0.016;2022-07-22T05:18:52;17.80;90.90
31084;DHT22;36333;51.382;0.016;2022-07-22T05:21:20;17.80;90.80
31084;DHT22;36333;51.382;0.016;2022-07-22T05:23:48;17.80;90.80
31084;DHT22;36333;51.382;0.016;2022-07-22T05:26:16;17.80;90.70
31084;DHT22;36333;51.382;0.016;2022-07-22T05:28:44;17.70;90.60
31084;DHT22;36333;51.382;0.016;2022-07-22T05:31:12;17.90;90.60
31084;DHT22;36333;51.382;0.016;2022-07-22T05:33:40;17.90;90.60
31084;DHT22;36333;51.382;0.016;2022-07-22T05:36:30;17.90;90.70
31084;DHT22;36333;51.382;0.016;2022-07-22T05:38:59;18.00;90.80
31084;DHT22;36333;51.382;0.016;2022-07-22T05:41:28;17.90;90.40
31084;DHT22;36333;51.382;0.016;2022-07-22T05:43:55;18.00;90.40
31084;DHT22;36333;51.382;0.016;2022-07-22T05:46:23;18.00;90.50
31084;DHT22;36333;51.382;0.016;2022-07-22T05:48:50;18.00;90.30
31084;DHT22;36333;51.382;0.016;2022-07-22T05:51:18;18.10;90.40
31084;DHT22;36333;51.382;0.016;2022-07-22T05:53:47;18.10;90.30
31084;DHT22;36333;51.382;0.016;2022-07-22T05:56:15;18.00;90.30
31084;DHT22;36333;51.382;0.016;2022-07-22T05:58:43;18.10;90.30
31084;DHT22;36333;51.382;0.016;2022-07-22T06:01:12;18.00;90.20
31084;DHT22;36333;51.382;0.016;2022-07-22T06:03:40;18.10;90.30
31084;DHT22;36333;51.382;0.016;2022-07-22T06:06:11;18.10;90.30
31084;DHT22;36333;51.382;0.016;2022-07-22T06:08:39;18.10;90.40
31084;DHT22;36333;51.382;0.016;2022-07-22T06:11:07;18.10;90.40
31084;DHT22;36333;51.382;0.016;2022-07-22T06:13:35;18.20;90.30
31084;DHT22;36333;51.382;0.016;2022-07-22T06:16:02;18.20;90.20
31084;DHT22;36333;51.382;0.016;2022-07-22T06:18:30;18.10;90.10
31084;DHT22;36333;51.382;0.016;2022-07-22T06:20:58;18.20;90.10
31084;DHT22;36333;51.382;0.016;2022-07-22T06:23:26;18.20;90.20
31084;DHT22;36333;51.382;0.016;2022-07-22T06:25:54;18.10;90.10
31084;DHT22;36333;51.382;0.016;2022-07-22T06:28:27;18.10;90.20
31084;DHT22;36333;51.382;0.016;2022-07-22T06:30:54;18.10;90.20
31084;DHT22;36333;51.382;0.016;2022-07-22T06:33:22;18.20;90.40
31084;DHT22;36333;51.382;0.016;2022-07-22T06:35:50;18.10;90.30
31084;DHT22;36333;51.382;0.016;2022-07-22T06:38:18;18.20;90.20
31084;DHT22;36333;51.382;0.016;2022-07-22T06:41:28;18.30;90.20
31084;DHT22;36333;51.382;0.016;2022-07-22T06:44:05;18.30;90.20
31084;DHT22;36333;51.382;0.016;2022-07-22T06:46:50;18.40;90.00
31084;DHT22;36333;51.382;0.016;2022-07-22T06:49:20;18.40;89.90
31084;DHT22;36333;51.382;0.016;2022-07-22T06:51:52;18.50;89.80
31084;DHT22;36333;51.382;0.016;2022-07-22T06:54:20;18.60;89.30
31084;DHT22;36333;51.382;0.016;2022-07-22T06:56:49;18.70;88.90
31084;DHT22;36333;51.382;0.016;2022-07-22T06:59:22;18.70;88.70
31084;DHT22;36333;51.382;0.016;2022-07-22T07:01:49;18.90;88.30
31084;DHT22;36333;51.382;0.016;2022-07-22T07:04:19;18.80;87.70
31084;DHT22;36333;51.382;0.016;2022-07-22T07:06:46;18.80;87.30
31084;DHT22;36333;51.382;0.016;2022-07-22T07:09:33;18.70;87.70
31084;DHT22;36333;51.382;0.016;2022-07-22T07:12:13;18.70;88.10
31084;DHT22;36333;51.382;0.016;2022-07-22T07:15:04;18.70;88.30
31084;DHT22;36333;51.382;0.016;2022-07-22T07:17:52;18.70;87.40
31084;DHT22;36333;51.382;0.016;2022-07-22T07:20:20;18.70;87.20
31084;DHT22;36333;51.382;0.016;2022-07-22T07:22:50;18.70;87.00
31084;DHT22;36333;51.382;0.016;2022-07-22T07:25:21;18.70;87.70
31084;DHT22;36333;51.382;0.016;2022-07-22T07:27:53;18.80;87.10
31084;DHT22;36333;51.382;0.016;2022-07-22T07:30:42;18.60;86.80
31084;DHT22;36333;51.382;0.016;2022-07-22T07:33:10;18.60;87.00
31084;DHT22;36333;51.382;0.016;2022-07-22T07:35:38;18.70;86.70
31084;DHT22;36333;51.382;0.016;2022-07-22T07:38:06;18.70;86.50
31084;DHT22;36333;51.382;0.016;2022-07-22T07:40:34;18.80;87.20
31084;DHT22;36333;51.382;0.016;2022-07-22T07:43:02;18.90;86.20
31084;DHT22;36333;51.382;0.016;2022-07-22T07:45:31;19.00;85.90
31084;DHT22;36333;51.382;0.016;2022-07-22T07:47:58;19.10;85.50
31084;DHT22;36333;51.382;0.016;2022-07-22T07:50:27;19.10;85.10
31084;DHT22;36333;51.382;0.016;2022-07-22T07:52:55;19.00;84.90
31084;DHT22;36333;51.382;0.016;2022-07-22T07:55:25;19.00;85.10
31084;DHT22;36333;51.382;0.016;2022-07-22T07:57:53;19.00;85.00
31084;DHT22;36333;51.382;0.016;2022-07-22T08:00:22;19.10;84.40
31084;DHT22;36333;51.382;0.016;2022-07-22T08:02:51;19.20;84.40
31084;DHT22;36333;51.382;0.016;2022-07-22T08:05:20;19.20;84.00
31084;DHT22;36333;51.382;0.016;2022-07-22T08:07:50;19.30;83.90
31084;DHT22;36333;51.382;0.016;2022-07-22T08:10:19;19.50;84.40
31084;DHT22;36333;51.382;0.016;2022-07-22T08:13:25;19.50;84.40
31084;DHT22;36333;51.382;0.016;2022-07-22T08:16:23;19.70;83.30
31084;DHT22;36333;51.382;0.016;2022-07-22T08:18:51;19.80;82.90
31084;DHT22;36333;51.382;0.016;2022-07-22T08:21:19;19.90;82.80
31084;DHT22;36333;51.382;0.016;2022-07-22T08:23:54;19.80;82.60
31084;DHT22;36333;51.382;0.016;2022-07-22T08:26:23;19.90;82.80
31084;DHT22;36333;51.382;0.016;2022-07-22T08:28:57;20.00;82.50
31084;DHT22;36333;51.382;0.016;2022-07-22T08:31:27;20.00;82.50
31084;DHT22;36333;51.382;0.016;2022-07-22T08:33:55;20.30;82.40
31084;DHT22;36333;51.382;0.016;2022-07-22T08:36:27;20.10;82.10
31084;DHT22;36333;51.382;0.016;2022-07-22T08:38:54;20.20;81.50
31084;DHT22;36333;51.382;0.016;2022-07-22T08:41:23;20.30;81.60
31084;DHT22;36333;51.382;0.016;2022-07-22T08:43:51;20.50;81.80
31084;DHT22;36333;51.382;0.016;2022-07-22T08:46:19;20.60;81.90
31084;DHT22;36333;51.382;0.016;2022-07-22T08:49:09;20.70;81.40
31084;DHT22;36333;51.382;0.016;2022-07-22T08:52:00;20.80;79.90
31084;DHT22;36333;51.382;0.016;2022-07-22T08:54:35;20.70;80.10
31084;DHT22;36333;51.382;0.016;2022-07-22T08:57:03;20.70;80.00
31084;DHT22;36333;51.382;0.016;2022-07-22T08:59:30;20.60;80.70
31084;DHT22;36333;51.382;0.016;2022-07-22T09:02:08;20.60;81.50
31084;DHT22;36333;51.382;0.016;2022-07-22T09:04:56;20.60;81.30
31084;DHT22;36333;51.382;0.016;2022-07-22T09:07:31;20.60;81.40
31084;DHT22;36333;51.382;0.016;2022-07-22T09:10:05;20.70;81.30
31084;DHT22;36333;51.382;0.016;2022-07-22T09:15:39;20.90;81.00
31084;DHT22;36333;51.382;0.016;2022-07-22T09:18:54;21.00;80.50
31084;DHT22;36333;51.382;0.016;2022-07-22T09:21:35;21.10;80.20
31084;DHT22;36333;51.382;0.016;2022-07-22T09:24:33;21.20;80.00
31084;DHT22;36333;51.382;0.016;2022-07-22T09:27:24;21.20;79.90
31084;DHT22;36333;51.382;0.016;2022-07-22T09:30:15;21.20;80.00
31084;DHT22;36333;51.382;0.016;2022-07-22T09:32:54;21.20;80.00
31084;DHT22;36333;51.382;0.016;2022-07-22T09:35:40;21.20;79.70
31084;DHT22;36333;51.382;0.016;2022-07-22T09:38:16;21.30;79.60
31084;DHT22;36333;51.382;0.016;2022-07-22T09:40:45;21.30;79.70
31084;DHT22;36333;51.382;0.016;2022-07-22T09:43:14;21.30;79.60
31084;DHT22;36333;51.382;0.016;2022-07-22T09:45:48;21.30;79.30
31084;DHT22;36333;51.382;0.016;2022-07-22T09:48:16;21.30;79.10
31084;DHT22;36333;51.382;0.016;2022-07-22T09:51:00;21.30;79.40
31084;DHT22;36333;51.382;0.016;2022-07-22T09:53:46;21.60;79.20
31084;DHT22;36333;51.382;0.016;2022-07-22T09:56:16;21.80;78.70
31084;DHT22;36333;51.382;0.016;2022-07-22T09:58:44;21.90;77.80
31084;DHT22;36333;51.382;0.016;2022-07-22T10:01:29;22.00;77.60
31084;DHT22;36333;51.382;0.016;2022-07-22T10:03:58;22.10;77.50
31084;DHT22;36333;51.382;0.016;2022-07-22T10:06:27;22.00;76.40
31084;DHT22;36333;51.382;0.016;2022-07-22T10:08:55;21.90;76.60
31084;DHT22;36333;51.382;0.016;2022-07-22T10:11:30;21.90;77.00
31084;DHT22;36333;51.382;0.016;2022-07-22T10:13:58;21.90;77.20
31084;DHT22;36333;51.382;0.016;2022-07-22T10:16:27;22.00;77.20
31084;DHT22;36333;51.382;0.016;2022-07-22T10:18:55;22.20;76.20
31084;DHT22;36333;51.382;0.016;2022-07-22T10:21:32;22.20;75.40
31084;DHT22;36333;51.382;0.016;2022-07-22T10:26:45;22.20;75.70
31084;DHT22;36333;51.382;0.016;2022-07-22T10:45:24;22.50;74.70
31084;DHT22;36333;51.382;0.016;2022-07-22T10:47:52;22.60;74.30
31084;DHT22;36333;51.382;0.016;2022-07-22T10:53:25;22.70;72.90
31084;DHT22;36333;51.382;0.016;2022-07-22T10:55:58;22.60;73.40
31084;DHT22;36333;51.382;0.016;2022-07-22T11:01:00;22.60;74.20
31084;DHT22;36333;51.382;0.016;2022-07-22T11:03:30;22.50;74.30
31084;DHT22;36333;51.382;0.016;2022-07-22T11:08:44;22.50;74.80
31084;DHT22;36333;51.382;0.016;2022-07-22T11:11:13;22.40;75.20
31084;DHT22;36333;51.382;0.016;2022-07-22T11:13:42;22.30;75.30
31084;DHT22;36333;51.382;0.016;2022-07-22T11:16:15;22.40;75.90
31084;DHT22;36333;51.382;0.016;2022-07-22T11:18:53;22.10;76.00
31084;DHT22;36333;51.382;0.016;2022-07-22T11:21:22;22.00;76.40
31084;DHT22;36333;51.382;0.016;2022-07-22T11:23:52;21.90;76.80
31084;DHT22;36333;51.382;0.016;2022-07-22T11:26:21;21.90;80.00
31084;DHT22;36333;51.382;0.016;2022-07-22T11:28:51;21.70;84.20
31084;DHT22;36333;51.382;0.016;2022-07-22T11:31:19;21.50;86.10
31084;DHT22;36333;51.382;0.016;2022-07-22T11:33:46;21.20;87.80
31084;DHT22;36333;51.382;0.016;2022-07-22T11:36:14;20.90;87.90
31084;DHT22;36333;51.382;0.016;2022-07-22T11:38:43;20.70;89.20
31084;DHT22;36333;51.382;0.016;2022-07-22T11:41:18;20.50;90.40
31084;DHT22;36333;51.382;0.016;2022-07-22T11:43:47;20.40;90.40
31084;DHT22;36333;51.382;0.016;2022-07-22T11:46:15;20.40;90.70
31084;DHT22;36333;51.382;0.016;2022-07-22T11:48:43;20.40;90.70
31084;DHT22;36333;51.382;0.016;2022-07-22T11:51:11;19.60;90.20
31084;DHT22;36333;51.382;0.016;2022-07-22T11:53:47;20.30;90.20
31084;DHT22;36333;51.382;0.016;2022-07-22T11:56:14;20.30;90.40
31084;DHT22;36333;51.382;0.016;2022-07-22T11:58:43;20.30;89.50
31084;DHT22;36333;51.382;0.016;2022-07-22T12:01:14;20.20;89.80
31084;DHT22;36333;51.382;0.016;2022-07-22T12:03:46;20.20;89.10
31084;DHT22;36333;51.382;0.016;2022-07-22T12:06:15;20.20;88.60
31084;DHT22;36333;51.382;0.016;2022-07-22T12:08:44;20.20;88.60
31084;DHT22;36333;51.382;0.016;2022-07-22T12:11:12;20.20;88.80
31084;DHT22;36333;51.382;0.016;2022-07-22T12:13:44;20.30;87.80
31084;DHT22;36333;51.382;0.016;2022-07-22T12:16:25;20.40;88.30
31084;DHT22;36333;51.382;0.016;2022-07-22T12:18:58;20.50;86.20
31084;DHT22;36333;51.382;0.016;2022-07-22T12:21:27;20.50;86.60
31084;DHT22;36333;51.382;0.016;2022-07-22T12:29:23;20.50;86.50
31084;DHT22;36333;51.382;0.016;2022-07-22T12:31:53;20.30;87.10
31084;DHT22;36333;51.382;0.016;2022-07-22T12:36:57;20.00;89.50
31084;DHT22;36333;51.382;0.016;2022-07-22T12:39:24;19.80;90.80
31084;DHT22;36333;51.382;0.016;2022-07-22T12:41:53;19.70;91.30
31084;DHT22;36333;51.382;0.016;2022-07-22T12:44:21;19.60;91.60
31084;DHT22;36333;51.382;0.016;2022-07-22T12:46:50;19.40;92.10
31084;DHT22;36333;51.382;0.016;2022-07-22T12:49:19;19.30;92.30
31084;DHT22;36333;51.382;0.016;2022-07-22T12:54:36;19.30;92.30
31084;DHT22;36333;51.382;0.016;2022-07-22T12:57:04;19.30;93.10
31084;DHT22;36333;51.382;0.016;2022-07-22T12:59:32;19.30;92.40
31084;DHT22;36333;51.382;0.016;2022-07-22T13:02:00;19.40;93.70
31084;DHT22;36333;51.382;0.016;2022-07-22T13:04:27;19.40;93.10
31084;DHT22;36333;51.382;0.016;2022-07-22T13:06:55;19.50;93.70
31084;DHT22;36333;51.382;0.016;2022-07-22T13:09:22;19.60;93.80
31084;DHT22;36333;51.382;0.016;2022-07-22T13:11:51;19.60;92.80
31084;DHT22;36333;51.382;0.016;2022-07-22T13:14:19;19.60;92.70
31084;DHT22;36333;51.382;0.016;2022-07-22T13:16:46;19.60;92.80
31084;DHT22;36333;51.382;0.016;2022-07-22T13:19:13;19.60;92.20
31084;DHT22;36333;51.382;0.016;2022-07-22T13:21:41;19.60;93.20
31084;DHT22;36333;51.382;0.016;2022-07-22T13:24:10;19.60;93.00
31084;DHT22;36333;51.382;0.016;2022-07-22T13:26:38;19.60;92.70
31084;DHT22;36333;51.382;0.016;2022-07-22T13:29:06;19.60;93.80
31084;DHT22;36333;51.382;0.016;2022-07-22T13:31:33;19.60;92.60
31084;DHT22;36333;51.382;0.016;2022-07-22T13:34:01;19.60;92.70
31084;DHT22;36333;51.382;0.016;2022-07-22T13:36:28;19.70;92.90
31084;DHT22;36333;51.382;0.016;2022-07-22T13:38:59;19.60;92.80
31084;DHT22;36333;51.382;0.016;2022-07-22T13:41:27;19.70;92.00
31084;DHT22;36333;51.382;0.016;2022-07-22T13:43:54;19.70;91.60
31084;DHT22;36333;51.382;0.016;2022-07-22T13:46:22;19.90;92.30
31084;DHT22;36333;51.382;0.016;2022-07-22T13:48:49;20.00;91.60
31084;DHT22;36333;51.382;0.016;2022-07-22T13:51:17;20.30;91.80
31084;DHT22;36333;51.382;0.016;2022-07-22T13:53:44;20.60;91.10
31084;DHT22;36333;51.382;0.016;2022-07-22T13:56:12;21.00;90.50
31084;DHT22;36333;51.382;0.016;2022-07-22T13:58:41;21.40;89.40
31084;DHT22;36333;51.382;0.016;2022-07-22T14:01:08;21.80;87.30
31084;DHT22;36333;51.382;0.016;2022-07-22T14:03:37;22.20;86.00
31084;DHT22;36333;51.382;0.016;2022-07-22T14:06:05;22.30;83.40
31084;DHT22;36333;51.382;0.016;2022-07-22T14:08:32;22.30;82.50
31084;DHT22;36333;51.382;0.016;2022-07-22T14:11:01;22.30;82.90
31084;DHT22;36333;51.382;0.016;2022-07-22T14:13:29;22.30;82.30
31084;DHT22;36333;51.382;0.016;2022-07-22T14:15:56;22.40;81.90
31084;DHT22;36333;51.382;0.016;2022-07-22T14:18:24;22.40;81.00
31084;DHT22;36333;51.382;0.016;2022-07-22T14:20:51;22.50;81.30
31084;DHT22;36333;51.382;0.016;2022-07-22T14:23:18;22.60;81.40
31084;DHT22;36333;51.382;0.016;2022-07-22T14:25:50;22.60;79.90
31084;DHT22;36333;51.382;0.016;2022-07-22T14:28:21;22.60;79.10
31084;DHT22;36333;51.382;0.016;2022-07-22T14:31:04;22.70;80.00
31084;DHT22;36333;51.382;0.016;2022-07-22T14:33:32;22.80;79.90
31084;DHT22;36333;51.382;0.016;2022-07-22T14:35:59;22.90;79.20
31084;DHT22;36333;51.382;0.016;2022-07-22T14:38:27;23.10;79.20
31084;DHT22;36333;51.382;0.016;2022-07-22T14:40:54;23.30;78.00
31084;DHT22;36333;51.382;0.016;2022-07-22T14:43:22;23.40;77.40
31084;DHT22;36333;51.382;0.016;2022-07-22T14:46:01;23.40;76.70
31084;DHT22;36333;51.382;0.016;2022-07-22T14:48:29;23.30;76.40
31084;DHT22;36333;51.382;0.016;2022-07-22T14:50:57;23.20;76.60
31084;DHT22;36333;51.382;0.016;2022-07-22T14:53:25;23.00;77.00
31084;DHT22;36333;51.382;0.016;2022-07-22T14:55:52;22.90;77.60
31084;DHT22;36333;51.382;0.016;2022-07-22T14:58:19;22.80;77.70
31084;DHT22;36333;51.382;0.016;2022-07-22T15:00:47;22.70;78.00
31084;DHT22;36333;51.382;0.016;2022-07-22T15:03:14;22.70;78.40
31084;DHT22;36333;51.382;0.016;2022-07-22T15:05:42;22.60;77.80
31084;DHT22;36333;51.382;0.016;2022-07-22T15:08:09;22.60;78.10
31084;DHT22;36333;51.382;0.016;2022-07-22T15:10:37;22.60;78.50
31084;DHT22;36333;51.382;0.016;2022-07-22T15:13:05;22.60;78.50
31084;DHT22;36333;51.382;0.016;2022-07-22T15:15:32;22.60;78.90
31084;DHT22;36333;51.382;0.016;2022-07-22T15:18:00;22.60;78.90
31084;DHT22;36333;51.382;0.016;2022-07-22T15:20:28;22.60;79.00
31084;DHT22;36333;51.382;0.016;2022-07-22T15:22:55;22.70;79.10
31084;DHT22;36333;51.382;0.016;2022-07-22T15:25:23;22.70;79.40
31084;DHT22;36333;51.382;0.016;2022-07-22T15:27:50;22.90;78.80
31084;DHT22;36333;51.382;0.016;2022-07-22T15:30:38;23.00;78.80
31084;DHT22;36333;51.382;0.016;2022-07-22T15:33:05;23.10;78.60
31084;DHT22;36333;51.382;0.016;2022-07-22T15:35:33;23.10;78.30
31084;DHT22;36333;51.382;0.016;2022-07-22T15:38:00;23.00;78.00
31084;DHT22;36333;51.382;0.016;2022-07-22T15:40:28;22.90;77.60
31084;DHT22;36333;51.382;0.016;2022-07-22T15:42:55;22.90;78.40
31084;DHT22;36333;51.382;0.016;2022-07-22T15:45:23;22.90;78.10
31084;DHT22;36333;51.382;0.016;2022-07-22T15:47:58;22.90;78.00
31084;DHT22;36333;51.382;0.016;2022-07-22T15:50:26;23.00;77.70
31084;DHT22;36333;51.382;0.016;2022-07-22T15:52:53;23.00;78.00
31084;DHT22;36333;51.382;0.016;2022-07-22T15:55:21;23.00;78.30
31084;DHT22;36333;51.382;0.016;2022-07-22T15:57:48;22.90;78.20
31084;DHT22;36333;51.382;0.016;2022-07-22T16:00:34;22.80;78.90
31084;DHT22;36333;51.382;0.016;2022-07-22T16:03:01;22.70;79.20
31084;DHT22;36333;51.382;0.016;2022-07-22T16:05:29;22.60;80.20
31084;DHT22;36333;51.382;0.016;2022-07-22T16:07:57;22.60;80.00
31084;DHT22;36333;51.382;0.016;2022-07-22T16:10:24;22.50;80.10
31084;DHT22;36333;51.382;0.016;2022-07-22T16:12:53;22.50;80.40
31084;DHT22;36333;51.382;0.016;2022-07-22T16:15:20;22.30;80.40
31084;DHT22;36333;51.382;0.016;2022-07-22T16:17:53;22.20;80.50
31084;DHT22;36333;51.382;0.016;2022-07-22T16:20:20;22.00;81.00
31084;DHT22;36333;51.382;0.016;2022-07-22T16:22:48;21.70;81.50
31084;DHT22;36333;51.382;0.016;2022-07-22T16:25:16;21.60;81.50
31084;DHT22;36333;51.382;0.016;2022-07-22T16:27:44;21.50;82.10
31084;DHT22;36333;51.382;0.016;2022-07-22T16:30:11;21.40;82.20